Time;durP1;ratioP1;P1;durP2;ratioP2;P2;SDS_P1;SDS_P2;PMS_P1;PMS_P2;Temp;Humidity;BMP_temperature;BMP_pressure;BME280_temperature;BME280_humidity;BME280_pressure;Samples;Min_cycle;Max_cycle;Signal;HPM_P1;HPM_P2
2021/11/19 00:02:04;;;;;;;1.20;0.68;;;0.40;99.90;;;;;;5099397;28;20090;-66
2021/11/19 00:04:31;;;;;;;0.80;0.80;;;0.40;99.90;;;;;;5112580;28;20020;-66
2021/11/19 00:06:58;;;;;;;2.00;0.70;;;0.40;99.90;;;;;;5101010;28;20361;-66
2021/11/19 00:09:24;;;;;;;1.80;0.90;;;0.30;99.90;;;;;;5096556;28;20034;-66
2021/11/19 00:11:51;;;;;;;1.58;0.80;;;0.30;99.90;;;;;;5112803;28;20024;-67
2021/11/19 00:14:19;;;;;;;0.55;0.55;;;0.30;99.90;;;;;;5096494;28;20470;-65
2021/11/19 00:16:49;;;;;;;1.42;0.70;;;0.30;99.90;;;;;;5101074;28;20380;-65
2021/11/19 00:19:16;;;;;;;3.07;1.10;;;0.30;99.90;;;;;;5111780;28;20020;-65
2021/11/19 00:21:43;;;;;;;1.60;0.88;;;0.30;99.90;;;;;;5099774;28;20379;-65
2021/11/19 00:24:11;;;;;;;3.55;0.80;;;0.30;99.90;;;;;;5112692;28;20031;-65
2021/11/19 00:26:39;;;;;;;0.82;0.65;;;0.30;99.90;;;;;;5098238;28;20113;-65
2021/11/19 00:29:05;;;;;;;1.73;0.90;;;0.30;99.90;;;;;;5112378;28;20030;-65
2021/11/19 00:31:31;;;;;;;1.65;0.70;;;0.30;99.90;;;;;;5112415;28;20012;-66
2021/11/19 00:33:57;;;;;;;1.42;0.70;;;0.30;99.90;;;;;;5102431;28;20104;-65
2021/11/19 00:36:26;;;;;;;2.08;0.80;;;0.30;99.90;;;;;;5107960;28;20019;-66
2021/11/19 00:38:56;;;;;;;3.15;0.80;;;0.30;99.90;;;;;;5104233;28;20024;-66
2021/11/19 00:41:22;;;;;;;0.68;0.68;;;0.30;99.90;;;;;;5092930;28;20510;-66
2021/11/19 00:43:47;;;;;;;1.85;0.85;;;0.30;99.90;;;;;;5105174;28;20059;-66
2021/11/19 00:46:14;;;;;;;1.10;0.68;;;0.30;99.90;;;;;;5104997;28;20503;-66
2021/11/19 00:48:41;;;;;;;2.25;0.80;;;0.40;99.90;;;;;;5098008;28;20023;-66
2021/11/19 00:51:12;;;;;;;0.57;0.57;;;0.40;99.90;;;;;;5112436;28;20019;-66
2021/11/19 00:53:42;;;;;;;1.75;0.80;;;0.40;99.90;;;;;;5112270;28;20024;-66
2021/11/19 00:56:10;;;;;;;3.13;0.98;;;0.40;99.90;;;;;;5111251;28;20131;-65
2021/11/19 00:58:36;;;;;;;0.75;0.75;;;0.40;99.90;;;;;;5108798;28;20498;-65
2021/11/19 01:01:09;;;;;;;1.27;0.77;;;0.40;99.90;;;;;;5110952;28;20103;-65
2021/11/19 01:03:36;;;;;;;3.85;1.15;;;0.40;99.90;;;;;;5099731;28;20055;-65
2021/11/19 01:06:02;;;;;;;2.42;0.77;;;0.40;99.90;;;;;;5095942;28;20420;-65
2021/11/19 01:08:29;;;;;;;4.15;0.85;;;0.40;99.90;;;;;;5107102;28;20050;-65
2021/11/19 01:10:58;;;;;;;6.07;0.90;;;0.40;99.90;;;;;;5106443;28;20024;-65
2021/11/19 01:13:25;;;;;;;0.93;0.75;;;0.40;99.90;;;;;;5111636;28;20119;-65
2021/11/19 01:16:00;;;;;;;3.40;0.95;;;0.30;99.90;;;;;;5111733;28;20480;-65
2021/11/19 01:18:34;;;;;;;4.32;0.88;;;0.30;99.90;;;;;;5097352;28;20028;-65
2021/11/19 01:21:28;;;;;;;3.78;1.30;;;0.30;99.90;;;;;;5112068;28;20498;-65
2021/11/19 01:23:55;;;;;;;0.73;0.60;;;0.30;99.90;;;;;;5111917;28;20110;-65
2021/11/19 01:26:25;;;;;;;2.53;0.82;;;0.30;99.90;;;;;;5111789;28;20364;-65
2021/11/19 01:28:54;;;;;;;3.50;1.00;;;0.30;99.90;;;;;;5111884;28;20030;-65
2021/11/19 01:31:30;;;;;;;0.73;0.70;;;0.30;99.90;;;;;;5111541;28;20475;-65
2021/11/19 01:33:55;;;;;;;2.28;0.80;;;0.20;99.90;;;;;;5111674;28;20027;-65
2021/11/19 01:36:22;;;;;;;4.70;0.70;;;0.20;99.90;;;;;;5102796;28;20016;-65
2021/11/19 01:38:49;;;;;;;0.82;0.60;;;0.20;99.90;;;;;;5106115;28;20431;-65
2021/11/19 01:41:22;;;;;;;1.75;0.70;;;0.20;99.90;;;;;;5111697;28;20031;-65
2021/11/19 01:43:49;;;;;;;2.40;0.88;;;0.20;99.90;;;;;;5098258;28;20075;-65
2021/11/19 01:46:18;;;;;;;2.85;0.88;;;0.30;99.90;;;;;;5096340;28;20535;-65
2021/11/19 01:48:48;;;;;;;1.05;0.60;;;0.20;99.90;;;;;;5111924;28;20024;-65
2021/11/19 01:51:40;;;;;;;2.10;0.65;;;0.20;99.90;;;;;;5111187;28;20120;-65
2021/11/19 01:54:25;;;;;;;1.38;0.70;;;0.20;99.90;;;;;;5111431;28;20111;-66
2021/11/19 01:57:06;;;;;;;0.95;0.70;;;0.30;99.90;;;;;;5099823;28;20047;-66
2021/11/19 02:00:04;;;;;;;4.03;1.00;;;0.20;99.90;;;;;;5111599;28;20107;-66
2021/11/19 02:02:38;;;;;;;1.00;0.70;;;0.20;99.90;;;;;;5089337;28;20499;-66
2021/11/19 02:05:12;;;;;;;6.03;0.90;;;0.20;99.90;;;;;;5097854;28;20463;-65
2021/11/19 02:07:44;;;;;;;1.92;0.63;;;0.20;99.90;;;;;;5112052;28;20035;-65
2021/11/19 02:10:38;;;;;;;0.80;0.80;;;0.20;99.90;;;;;;5101497;28;20034;-65
2021/11/19 02:13:28;;;;;;;3.28;0.70;;;0.20;99.90;;;;;;5100798;28;20027;-65
2021/11/19 02:16:01;;;;;;;5.33;0.90;;;0.20;99.90;;;;;;5113947;28;20073;-65
2021/11/19 02:18:37;;;;;;;3.60;0.90;;;0.30;99.90;;;;;;5100745;28;20648;-66
2021/11/19 02:21:10;;;;;;;3.45;0.65;;;0.30;99.90;;;;;;5115131;28;20019;-66
2021/11/19 02:23:47;;;;;;;2.50;0.80;;;0.30;99.90;;;;;;5115216;28;20028;-66
2021/11/19 02:55:23;;;;;;;2.75;0.68;;;0.40;99.90;;;;;;5113945;28;20141;-66
2021/11/19 02:57:50;;;;;;;1.38;0.90;;;0.40;99.90;;;;;;5100225;28;20028;-65
2021/11/19 03:00:30;;;;;;;1.40;0.77;;;0.40;99.90;;;;;;5114164;28;20175;-65
2021/11/19 03:02:56;;;;;;;;;;;0.40;99.90;;;;;;5094400;28;20503;-65
2021/11/19 03:05:24;;;;;;;1.88;0.60;;;0.40;99.90;;;;;;5093751;28;19904;-65
2021/11/19 03:07:50;;;;;;;1.17;0.60;;;0.40;99.90;;;;;;5112311;28;20089;-65
2021/11/19 03:10:23;;;;;;;1.45;0.90;;;0.40;99.90;;;;;;5114232;28;20386;-65
2021/11/19 03:12:50;;;;;;;1.63;0.50;;;0.40;99.90;;;;;;5113826;28;20047;-65
2021/11/19 03:15:23;;;;;;;1.42;0.80;;;0.40;99.90;;;;;;5113876;28;20453;-64
2021/11/19 03:17:49;;;;;;;1.83;0.80;;;0.40;99.90;;;;;;5101564;28;20047;-64
2021/11/19 03:20:17;;;;;;;0.75;0.70;;;0.40;99.90;;;;;;5111297;28;20050;-65
2021/11/19 03:22:43;;;;;;;1.77;0.70;;;0.50;99.90;;;;;;5113672;28;20035;-65
2021/11/19 03:25:13;;;;;;;1.08;0.80;;;0.50;99.90;;;;;;5113598;28;20031;-65
2021/11/19 03:27:39;;;;;;;0.65;0.60;;;0.50;99.90;;;;;;5113717;28;20069;-65
2021/11/19 03:30:08;;;;;;;1.95;0.60;;;0.50;99.90;;;;;;5113466;28;20062;-64
2021/11/19 03:32:34;;;;;;;0.80;0.73;;;0.50;99.90;;;;;;5113582;28;20491;-65
2021/11/19 03:35:00;;;;;;;1.25;0.47;;;0.50;99.90;;;;;;5112201;28;20034;-64
2021/11/19 03:37:27;;;;;;;1.52;0.70;;;0.50;99.90;;;;;;5113663;28;20035;-65
2021/11/19 03:39:53;;;;;;;0.85;0.70;;;0.50;99.90;;;;;;5113891;28;20050;-64
2021/11/19 03:42:21;;;;;;;1.30;0.63;;;0.60;99.90;;;;;;5098685;28;20089;-64
2021/11/19 03:44:53;;;;;;;3.03;0.70;;;0.60;99.90;;;;;;5113478;28;20080;-64
2021/11/19 03:47:25;;;;;;;2.38;0.82;;;0.50;99.90;;;;;;5113045;28;20024;-64
2021/11/19 03:49:53;;;;;;;0.63;0.63;;;0.50;99.90;;;;;;5113388;28;20160;-64
2021/11/19 03:52:28;;;;;;;0.70;0.68;;;0.50;99.90;;;;;;5111636;28;20454;-64
2021/11/19 03:54:58;;;;;;;1.23;0.50;;;0.50;99.90;;;;;;5111814;28;20027;-64
2021/11/19 03:57:25;;;;;;;0.75;0.52;;;0.50;99.90;;;;;;5098796;28;20055;-64
2021/11/19 03:59:52;;;;;;;0.65;0.65;;;0.50;99.90;;;;;;5105166;28;20031;-64
2021/11/19 04:02:20;;;;;;;2.72;0.80;;;0.50;99.90;;;;;;5107010;28;20034;-65
2021/11/19 04:04:47;;;;;;;0.95;0.70;;;0.50;99.90;;;;;;5106565;28;20034;-65
2021/11/19 04:07:15;;;;;;;0.90;0.50;;;0.50;99.90;;;;;;5105583;28;20108;-65
2021/11/19 04:09:44;;;;;;;1.25;0.70;;;0.50;99.90;;;;;;5113093;28;20032;-65
2021/11/19 04:12:11;;;;;;;1.77;0.60;;;0.50;99.90;;;;;;5112589;28;20024;-65
2021/11/19 04:14:37;;;;;;;0.75;0.57;;;0.50;99.90;;;;;;5112942;28;20024;-65
2021/11/19 04:17:04;;;;;;;1.85;0.80;;;0.50;99.90;;;;;;5112453;28;20022;-65
2021/11/19 04:19:31;;;;;;;1.33;0.70;;;0.60;99.90;;;;;;5100738;28;20114;-65
2021/11/19 04:22:01;;;;;;;0.70;0.70;;;0.60;99.90;;;;;;5111052;28;20027;-65
2021/11/19 04:24:34;;;;;;;1.85;0.60;;;0.50;99.90;;;;;;5101942;28;20042;-65
2021/11/19 04:27:00;;;;;;;1.00;0.60;;;0.50;99.90;;;;;;5110653;28;20034;-65
2021/11/19 04:29:26;;;;;;;1.08;0.55;;;0.50;99.90;;;;;;5112444;28;20031;-65
2021/11/19 04:31:52;;;;;;;1.13;0.60;;;0.50;99.90;;;;;;5112162;28;20031;-65
2021/11/19 04:34:18;;;;;;;1.40;0.60;;;0.60;99.90;;;;;;5104561;28;20027;-65
2021/11/19 04:36:43;;;;;;;2.03;0.80;;;0.50;99.90;;;;;;5106515;28;20084;-64
2021/11/19 04:39:11;;;;;;;1.50;0.63;;;0.60;99.90;;;;;;5106681;28;20418;-64
2021/11/19 04:41:37;;;;;;;1.73;0.82;;;0.60;99.90;;;;;;5104216;28;20111;-64
2021/11/19 04:44:04;;;;;;;2.45;0.80;;;0.60;99.90;;;;;;5112121;28;20056;-64
2021/11/19 04:46:30;;;;;;;0.95;0.70;;;0.60;99.90;;;;;;5112264;28;20073;-65
2021/11/19 04:48:56;;;;;;;0.70;0.70;;;0.60;99.90;;;;;;5112229;28;20055;-65
2021/11/19 04:51:26;;;;;;;2.35;0.82;;;0.70;99.90;;;;;;5103395;28;20055;-65
2021/11/19 04:53:52;;;;;;;0.82;0.70;;;0.60;99.90;;;;;;5106273;28;20073;-65
2021/11/19 04:56:20;;;;;;;1.35;0.88;;;0.70;99.90;;;;;;5098602;28;20062;-65
2021/11/19 04:58:47;;;;;;;1.30;0.70;;;0.60;99.90;;;;;;5112471;28;20072;-65
2021/11/19 05:01:17;;;;;;;0.85;0.73;;;0.60;99.90;;;;;;5097466;28;20034;-65
2021/11/19 05:03:43;;;;;;;2.50;0.60;;;0.60;99.90;;;;;;5112276;28;20142;-65
2021/11/19 05:06:09;;;;;;;1.30;0.75;;;0.60;99.90;;;;;;5111650;28;20475;-65
2021/11/19 05:08:35;;;;;;;0.70;0.70;;;0.60;99.90;;;;;;5112324;28;20043;-65
2021/11/19 05:11:04;;;;;;;1.27;0.80;;;0.50;99.90;;;;;;5112098;28;20417;-65
2021/11/19 05:13:33;;;;;;;2.38;0.90;;;0.60;99.90;;;;;;5111878;28;20028;-64
2021/11/19 05:16:00;;;;;;;3.90;0.70;;;0.60;99.90;;;;;;5097434;28;20452;-65
2021/11/19 05:18:27;;;;;;;1.65;0.70;;;0.60;99.90;;;;;;5111714;28;20039;-64
2021/11/19 05:20:55;;;;;;;2.17;0.75;;;0.60;99.90;;;;;;5112049;28;20073;-64
2021/11/19 05:23:21;;;;;;;0.95;0.80;;;0.60;99.90;;;;;;5111473;28;20502;-64
2021/11/19 05:25:47;;;;;;;1.65;0.80;;;0.60;99.90;;;;;;5110568;28;20085;-64
2021/11/19 05:28:16;;;;;;;1.80;0.80;;;0.60;99.90;;;;;;5111449;28;20028;-64
2021/11/19 05:30:42;;;;;;;3.45;0.80;;;0.60;99.90;;;;;;5098074;28;20440;-64
2021/11/19 05:33:11;;;;;;;1.50;0.98;;;0.60;99.90;;;;;;5111282;28;20085;-63
2021/11/19 05:35:37;;;;;;;2.53;0.70;;;0.60;99.90;;;;;;5111708;28;20023;-63
2021/11/19 05:38:05;;;;;;;0.70;0.60;;;0.60;99.90;;;;;;5111512;28;20110;-63
2021/11/19 05:40:30;;;;;;;1.60;0.80;;;0.60;99.90;;;;;;5109660;28;20089;-65
2021/11/19 05:42:57;;;;;;;12.60;1.05;;;1.80;99.90;;;;;;5091872;28;20456;-67
2021/11/19 05:45:24;;;;;;;1.05;0.52;;;4.70;99.90;;;;;;5108415;28;20558;-63
2021/11/19 05:47:50;;;;;;;2.25;0.80;;;5.50;99.90;;;;;;5112992;28;20023;-62
2021/11/19 05:50:19;;;;;;;2.10;0.90;;;4.50;99.90;;;;;;5099866;28;20026;-63
2021/11/19 05:52:45;;;;;;;1.55;0.80;;;3.70;99.90;;;;;;5097188;28;20106;-63
2021/11/19 05:55:15;;;;;;;2.65;0.60;;;3.10;99.90;;;;;;5096713;28;20115;-63
2021/11/19 05:57:41;;;;;;;0.97;0.63;;;2.70;99.90;;;;;;5095480;28;20055;-63
2021/11/19 06:00:23;;;;;;;1.85;0.90;;;2.40;99.90;;;;;;5095221;28;20031;-63
2021/11/19 06:02:50;;;;;;;2.53;0.65;;;2.30;99.90;;;;;;5105544;28;20138;-63
2021/11/19 06:05:16;;;;;;;2.08;0.68;;;2.20;99.90;;;;;;5095946;28;20436;-63
2021/11/19 06:07:42;;;;;;;0.60;0.57;;;2.10;99.90;;;;;;5097592;28;20036;-62
2021/11/19 06:10:09;;;;;;;1.30;0.68;;;2.10;99.90;;;;;;5096612;28;20024;-62
2021/11/19 06:12:42;;;;;;;5.70;1.15;;;2.10;99.90;;;;;;5095850;28;20161;-62
2021/11/19 06:15:22;;;;;;;2.83;0.70;;;1.90;99.90;;;;;;5094259;28;20052;-62
2021/11/19 06:17:53;;;;;;;2.15;0.70;;;1.80;99.90;;;;;;5096900;28;20479;-63
2021/11/19 06:20:21;;;;;;;2.83;0.90;;;1.70;99.90;;;;;;5101557;28;20035;-63
2021/11/19 06:22:55;;;;;;;0.63;0.63;;;1.60;99.90;;;;;;5115279;28;20048;-62
2021/11/19 06:25:31;;;;;;;3.65;1.10;;;1.70;99.90;;;;;;5107296;28;20027;-63
2021/11/19 06:28:00;;;;;;;2.58;0.70;;;1.70;99.90;;;;;;5108396;28;20015;-63
2021/11/19 06:30:27;;;;;;;2.60;0.70;;;1.70;99.90;;;;;;5107109;28;20027;-63
2021/11/19 06:32:53;;;;;;;2.88;1.10;;;1.60;99.90;;;;;;5113427;28;20030;-62
2021/11/19 06:35:19;;;;;;;3.45;0.65;;;1.60;99.90;;;;;;5114728;27;20111;-62
2021/11/19 06:37:45;;;;;;;1.05;0.70;;;1.50;99.90;;;;;;5115030;28;20107;-62
2021/11/19 06:40:16;;;;;;;1.65;0.65;;;1.40;99.90;;;;;;5114814;28;20047;-62
2021/11/19 06:42:42;;;;;;;1.65;0.95;;;1.40;99.90;;;;;;5111738;28;20051;-62
2021/11/19 06:45:11;;;;;;;3.88;0.80;;;1.30;99.90;;;;;;5096273;28;20036;-62
2021/11/19 06:47:37;;;;;;;4.88;0.93;;;1.30;99.90;;;;;;5105623;28;20019;-62
2021/11/19 06:50:04;;;;;;;3.42;0.93;;;1.20;99.90;;;;;;5094454;28;20472;-62
2021/11/19 06:52:29;;;;;;;4.80;0.80;;;1.10;99.90;;;;;;5101940;28;20033;-62
2021/11/19 06:54:55;;;;;;;1.80;1.00;;;1.10;99.90;;;;;;5100699;28;20596;-62
2021/11/19 06:57:21;;;;;;;2.70;0.85;;;1.00;99.90;;;;;;5109837;28;20372;-62
2021/11/19 06:59:47;;;;;;;1.38;0.93;;;1.00;99.90;;;;;;5114403;28;20471;-62
2021/11/19 07:02:13;;;;;;;0.60;0.60;;;1.30;99.90;;;;;;5114340;28;20029;-64
2021/11/19 07:04:39;;;;;;;2.10;0.85;;;1.20;99.90;;;;;;5112956;28;20028;-64
2021/11/19 07:07:07;;;;;;;1.13;0.80;;;1.10;99.90;;;;;;5114329;28;20026;-64
2021/11/19 07:09:35;;;;;;;0.75;0.63;;;1.10;99.90;;;;;;5113834;28;20110;-63
2021/11/19 07:12:01;;;;;;;1.20;0.80;;;1.10;99.90;;;;;;5113907;28;20489;-63
2021/11/19 07:14:27;;;;;;;3.50;0.68;;;1.10;99.90;;;;;;5100191;28;20012;-63
2021/11/19 07:16:53;;;;;;;4.43;1.10;;;1.10;99.90;;;;;;5099108;28;20019;-63
2021/11/19 07:19:20;;;;;;;1.95;0.73;;;1.10;99.90;;;;;;5113545;28;20022;-63
2021/11/19 07:21:46;;;;;;;1.42;0.80;;;1.10;99.90;;;;;;5114163;28;20066;-64
2021/11/19 07:24:12;;;;;;;0.65;0.65;;;1.10;99.90;;;;;;5112169;28;20036;-64
2021/11/19 07:26:38;;;;;;;1.85;0.80;;;1.00;99.90;;;;;;5095241;28;20479;-65
2021/11/19 07:29:05;;;;;;;2.38;0.68;;;1.10;99.90;;;;;;5100575;28;20031;-65
2021/11/19 07:31:31;;;;;;;0.60;0.60;;;1.10;99.90;;;;;;5119813;27;20093;-65
2021/11/19 07:33:57;;;;;;;0.90;0.60;;;1.10;99.90;;;;;;5113742;28;20069;-66
2021/11/19 07:36:23;;;;;;;1.88;0.60;;;1.10;99.90;;;;;;5113445;28;20028;-67
2021/11/19 07:38:50;;;;;;;0.95;0.65;;;1.50;99.90;;;;;;5113462;28;20080;-66
2021/11/19 07:41:18;;;;;;;3.25;1.00;;;2.00;99.90;;;;;;5113431;28;20023;-65
2021/11/19 07:43:44;;;;;;;1.42;0.80;;;2.30;99.90;;;;;;5115751;27;20035;-65
2021/11/19 07:46:23;;;;;;;1.55;0.90;;;2.20;99.90;;;;;;5105592;27;20028;-65
2021/11/19 07:48:48;;;;;;;2.90;0.77;;;2.10;99.90;;;;;;5108369;28;20031;-64
2021/11/19 07:51:18;;;;;;;1.00;0.70;;;1.90;99.90;;;;;;5107650;28;20536;-64
2021/11/19 07:53:45;;;;;;;1.52;0.80;;;1.70;99.90;;;;;;5102611;28;20032;-62
2021/11/19 07:56:13;;;;;;;4.25;0.90;;;1.70;99.90;;;;;;5103364;28;20056;-61
2021/11/19 07:58:39;;;;;;;3.65;1.02;;;1.60;99.90;;;;;;5111099;28;20075;-62
2021/11/19 08:01:05;;;;;;;1.38;0.80;;;1.60;99.90;;;;;;5112784;27;20019;-61
2021/11/19 08:03:32;;;;;;;2.90;1.15;;;1.60;99.90;;;;;;5112384;28;20050;-62
2021/11/19 08:06:00;;;;;;;0.95;0.70;;;1.50;99.90;;;;;;5112177;28;20020;-62
2021/11/19 08:08:29;;;;;;;1.10;0.77;;;1.50;99.90;;;;;;5112482;28;20046;-62
2021/11/19 08:10:55;;;;;;;1.52;0.73;;;1.50;99.90;;;;;;5107395;28;20024;-61
2021/11/19 08:13:21;;;;;;;1.95;0.88;;;1.50;99.90;;;;;;5111719;28;20028;-62
2021/11/19 08:15:46;;;;;;;2.75;0.65;;;1.60;99.90;;;;;;5111028;28;20045;-61
2021/11/19 08:18:22;;;;;;;1.48;0.70;;;1.50;99.90;;;;;;5111932;28;20031;-62
2021/11/19 08:20:51;;;;;;;4.60;0.90;;;1.50;99.90;;;;;;5112549;28;20012;-62
2021/11/19 08:23:21;;;;;;;1.63;0.57;;;1.60;99.90;;;;;;5111760;28;20157;-62
2021/11/19 08:25:47;;;;;;;0.75;0.57;;;1.60;99.90;;;;;;5112488;28;20020;-62
2021/11/19 08:28:15;;;;;;;1.13;0.60;;;1.60;99.90;;;;;;5098110;28;20119;-62
2021/11/19 08:30:44;;;;;;;1.52;0.80;;;1.50;99.90;;;;;;5097895;28;20497;-62
2021/11/19 08:33:11;;;;;;;4.22;0.80;;;1.50;99.90;;;;;;5112341;28;20656;-62
2021/11/19 08:35:40;;;;;;;2.50;0.60;;;1.50;99.90;;;;;;5112215;28;20428;-62
2021/11/19 08:38:19;;;;;;;0.90;0.70;;;1.60;99.90;;;;;;5112069;28;20023;-62
2021/11/19 08:40:46;;;;;;;0.50;0.50;;;1.60;99.90;;;;;;5112214;28;20099;-62
2021/11/19 08:43:14;;;;;;;3.50;0.70;;;1.60;99.90;;;;;;5100992;28;20379;-62
2021/11/19 08:45:42;;;;;;;3.42;0.85;;;1.70;99.90;;;;;;5109424;28;20026;-62
2021/11/19 08:48:09;;;;;;;10.23;1.60;;;1.60;99.90;;;;;;5097251;28;20408;-62
2021/11/19 08:50:39;;;;;;;3.13;0.75;;;1.90;99.90;;;;;;5107170;28;20454;-62
2021/11/19 08:53:07;;;;;;;1.60;0.77;;;2.00;99.90;;;;;;5102337;28;20054;-62
2021/11/19 08:55:34;;;;;;;1.38;0.65;;;1.90;99.90;;;;;;5093397;28;20036;-62
2021/11/19 08:58:00;;;;;;;1.13;0.50;;;1.80;99.90;;;;;;5094096;28;20516;-62
2021/11/19 09:00:31;;;;;;;2.60;0.57;;;1.80;99.90;;;;;;5091976;28;20062;-62
2021/11/19 09:03:00;;;;;;;1.58;0.70;;;1.80;99.90;;;;;;5094450;28;20028;-62
2021/11/19 09:05:30;;;;;;;0.70;0.70;;;1.70;99.90;;;;;;5093599;28;20032;-62
2021/11/19 09:07:56;;;;;;;1.53;0.60;;;1.70;99.90;;;;;;5096265;28;20034;-61
2021/11/19 09:10:23;;;;;;;3.35;0.80;;;1.70;99.90;;;;;;5111518;28;20099;-62
2021/11/19 09:12:50;;;;;;;1.73;0.80;;;1.70;99.90;;;;;;5099159;28;20028;-61
2021/11/19 09:15:20;;;;;;;0.80;0.80;;;1.70;99.90;;;;;;5106134;28;20075;-62
2021/11/19 09:18:09;;;;;;;1.00;0.70;;;1.60;99.90;;;;;;5110794;28;20028;-62
2021/11/19 09:20:54;;;;;;;1.88;0.70;;;1.60;99.90;;;;;;5098456;28;20057;-62
2021/11/19 09:23:29;;;;;;;3.38;0.90;;;1.70;99.90;;;;;;5110725;28;20028;-62
2021/11/19 09:25:59;;;;;;;3.63;1.00;;;1.70;99.90;;;;;;5111688;28;20049;-61
2021/11/19 09:28:27;;;;;;;0.98;0.63;;;1.70;99.90;;;;;;5105598;28;20078;-61
2021/11/19 09:30:57;;;;;;;1.65;0.85;;;2.10;99.90;;;;;;5105802;28;20016;-61
2021/11/19 09:33:24;;;;;;;1.50;0.73;;;2.20;99.90;;;;;;5096258;28;20035;-62
2021/11/19 09:35:50;;;;;;;1.45;0.70;;;2.00;99.90;;;;;;5102110;28;20491;-62
2021/11/19 09:38:18;;;;;;;5.20;1.13;;;1.90;99.90;;;;;;5110771;28;20199;-62
2021/11/19 09:40:56;;;;;;;0.90;0.90;;;1.80;99.90;;;;;;5103980;28;20024;-61
2021/11/19 09:43:25;;;;;;;4.10;0.85;;;2.00;99.90;;;;;;5094549;28;20036;-62
2021/11/19 09:46:40;;;;;;;2.10;0.70;;;2.00;99.90;;;;;;5092498;28;20539;-62
2021/11/19 09:49:50;;;;;;;1.10;0.63;;;1.90;99.90;;;;;;5104837;28;20024;-62
2021/11/19 09:52:19;;;;;;;1.15;0.73;;;1.80;99.90;;;;;;5079354;28;20028;-61
2021/11/19 09:55:03;;;;;;;2.22;0.70;;;1.80;99.90;;;;;;5104402;28;20028;-62
2021/11/19 09:57:50;;;;;;;2.42;0.93;;;1.80;99.90;;;;;;5095527;28;20154;-62
2021/11/19 10:00:27;;;;;;;4.82;0.80;;;1.70;99.90;;;;;;5098893;28;20043;-61
2021/11/19 10:03:13;;;;;;;1.10;0.55;;;1.70;99.90;;;;;;5092268;28;20039;-61
2021/11/19 10:06:00;;;;;;;1.58;0.75;;;1.80;99.90;;;;;;5099550;28;20024;-62
2021/11/19 10:08:49;;;;;;;2.13;0.70;;;1.70;99.90;;;;;;5099558;28;20027;-61
2021/11/19 10:11:25;;;;;;;3.03;0.90;;;1.70;99.90;;;;;;5109434;28;20116;-62
2021/11/19 10:14:05;;;;;;;2.58;0.70;;;1.70;99.90;;;;;;5111251;28;20050;-62
2021/11/19 10:16:53;;;;;;;1.15;0.80;;;1.70;99.90;;;;;;5103980;28;20483;-62
2021/11/19 10:19:28;;;;;;;1.02;0.70;;;1.70;99.90;;;;;;5111314;28;20116;-62
2021/11/19 10:21:53;;;;;;;1.50;0.90;;;1.70;99.90;;;;;;5090905;28;20103;-62
2021/11/19 10:24:46;;;;;;;1.23;0.60;;;1.70;99.90;;;;;;5108128;28;20547;-62
2021/11/19 10:27:23;;;;;;;2.10;0.80;;;1.80;99.90;;;;;;5120984;28;20688;-62
2021/11/19 10:29:58;;;;;;;0.80;0.80;;;1.70;99.90;;;;;;5123059;27;20027;-62
2021/11/19 10:32:26;;;;;;;2.33;0.77;;;1.80;99.90;;;;;;5112125;27;20016;-62
2021/11/19 10:35:09;;;;;;;1.67;0.80;;;1.80;99.90;;;;;;5114600;28;20035;-63
2021/11/19 10:37:56;;;;;;;1.25;0.65;;;1.80;99.90;;;;;;5103114;28;20499;-63
2021/11/19 10:41:00;;;;;;;3.17;0.75;;;1.80;99.90;;;;;;5101143;28;20567;-63
2021/11/19 10:43:39;;;;;;;1.13;0.60;;;1.80;99.90;;;;;;5064671;28;20143;-63
2021/11/19 10:46:17;;;;;;;1.88;0.90;;;1.80;99.90;;;;;;5108830;28;20027;-63
2021/11/19 10:49:24;;;;;;;1.13;0.63;;;1.80;99.90;;;;;;5109104;28;20016;-63
2021/11/19 10:52:22;;;;;;;3.00;0.70;;;1.80;99.90;;;;;;5100522;28;20035;-63
2021/11/19 10:55:05;;;;;;;2.08;0.70;;;1.80;99.90;;;;;;5087407;28;20054;-62
2021/11/19 10:57:46;;;;;;;1.23;0.75;;;1.80;99.90;;;;;;5110794;28;20023;-62
2021/11/19 11:00:41;;;;;;;2.70;0.93;;;1.80;99.90;;;;;;5110091;28;20067;-62
2021/11/19 11:03:13;;;;;;;2.72;0.80;;;1.80;99.90;;;;;;5096950;28;20034;-62
2021/11/19 11:05:42;;;;;;;1.00;0.63;;;1.80;99.90;;;;;;5100861;28;20024;-62
2021/11/19 11:08:20;;;;;;;0.80;0.70;;;1.90;99.90;;;;;;5107863;28;20391;-63
2021/11/19 11:10:51;;;;;;;3.20;0.90;;;1.90;99.90;;;;;;5099642;28;20026;-62
2021/11/19 11:13:22;;;;;;;2.25;0.73;;;1.90;99.90;;;;;;5107900;28;20020;-62
2021/11/19 11:15:56;;;;;;;0.77;0.60;;;1.90;99.90;;;;;;5107569;28;20035;-62
2021/11/19 11:18:25;;;;;;;3.05;0.80;;;1.90;99.90;;;;;;5110549;28;20030;-62
2021/11/19 11:20:55;;;;;;;0.98;0.75;;;1.90;99.90;;;;;;5114233;28;20411;-63
2021/11/19 11:23:47;;;;;;;2.65;0.75;;;1.90;99.90;;;;;;5113628;28;20035;-62
2021/11/19 11:26:17;;;;;;;0.80;0.80;;;1.90;99.90;;;;;;5114230;28;20032;-62
2021/11/19 11:29:00;;;;;;;2.30;0.70;;;1.90;99.90;;;;;;5113598;28;20026;-63
2021/11/19 11:31:53;;;;;;;4.15;1.25;;;1.90;99.90;;;;;;5113754;28;20578;-63
2021/11/19 11:34:26;;;;;;;0.70;0.70;;;2.00;99.90;;;;;;5101551;28;20126;-63
2021/11/19 11:37:16;;;;;;;4.40;0.85;;;2.00;99.90;;;;;;5113738;28;20441;-63
2021/11/19 11:39:55;;;;;;;1.75;0.70;;;2.00;99.90;;;;;;5113781;28;20024;-63
2021/11/19 11:42:24;;;;;;;3.67;0.75;;;2.00;99.90;;;;;;5112773;28;20039;-63
2021/11/19 11:44:54;;;;;;;2.78;0.60;;;2.00;99.90;;;;;;5113748;28;20024;-63
2021/11/19 11:47:37;;;;;;;1.20;0.73;;;2.00;99.90;;;;;;5113197;28;20023;-64
2021/11/19 11:50:29;;;;;;;4.65;0.70;;;2.00;99.90;;;;;;5113469;28;20138;-62
2021/11/19 11:53:03;;;;;;;1.55;0.80;;;2.00;99.90;;;;;;5092718;28;20402;-62
2021/11/19 11:55:44;;;;;;;5.60;0.80;;;2.00;99.90;;;;;;5098459;28;20039;-62
2021/11/19 11:58:10;;;;;;;;;;;2.00;99.90;;;;;;5094790;28;20031;-63
2021/11/19 12:00:58;;;;;;;1.00;0.70;;;2.00;99.90;;;;;;5092438;28;20443;-63
2021/11/19 12:03:42;;;;;;;1.85;0.77;;;2.10;99.90;;;;;;5097277;28;20038;-63
2021/11/19 12:06:15;;;;;;;3.95;0.80;;;2.10;99.90;;;;;;5094384;28;20046;-63
2021/11/19 12:08:41;;;;;;;0.82;0.80;;;2.00;99.90;;;;;;5103147;28;20855;-63
2021/11/19 12:11:25;;;;;;;24.52;10.40;;;2.00;99.90;;;;;;5111349;28;20114;-63
2021/11/19 12:14:22;;;;;;;2.40;1.55;;;2.00;99.90;;;;;;5112524;28;20034;-63
2021/11/19 12:16:51;;;;;;;2.60;1.30;;;2.00;99.90;;;;;;5086536;28;20036;-63
2021/11/19 12:20:04;;;;;;;31.88;9.13;;;2.00;99.90;;;;;;5111966;27;20386;-62
2021/11/19 12:23:11;;;;;;;3.53;1.42;;;2.00;99.90;;;;;;5107842;28;20030;-63
2021/11/19 12:25:53;;;;;;;5.75;1.20;;;2.00;99.90;;;;;;5105055;27;20040;-63
2021/11/19 12:28:27;;;;;;;0.88;0.70;;;2.00;99.90;;;;;;5108102;28;20106;-64
2021/11/19 12:31:31;;;;;;;1.45;0.80;;;2.00;99.90;;;;;;5092310;27;20028;-64
2021/11/19 12:34:07;;;;;;;4.22;2.97;;;2.00;99.90;;;;;;5118647;27;20020;-63
2021/11/19 12:36:46;;;;;;;3.45;1.55;;;2.00;99.90;;;;;;5114101;27;20273;-66
2021/11/19 12:39:12;;;;;;;1.48;1.00;;;2.40;99.90;;;;;;5097108;27;20024;-63
2021/11/19 12:41:44;;;;;;;0.82;0.82;;;3.50;99.90;;;;;;5103988;27;20030;-63
2021/11/19 12:44:33;;;;;;;5.65;0.90;;;3.20;99.90;;;;;;5103526;28;20036;-63
2021/11/19 12:47:16;;;;;;;1.13;0.82;;;2.80;99.90;;;;;;5088159;28;20028;-63
2021/11/19 12:50:22;;;;;;;3.40;1.10;;;2.50;99.90;;;;;;5103247;28;20559;-63
2021/11/19 12:52:53;;;;;;;3.42;1.65;;;2.40;99.90;;;;;;5077783;28;20495;-62
2021/11/19 12:55:36;;;;;;;3.25;1.35;;;3.20;99.90;;;;;;5107349;28;20067;-63
2021/11/19 12:58:24;;;;;;;3.65;0.93;;;3.10;99.90;;;;;;5101700;28;20027;-63
2021/11/19 13:01:18;;;;;;;1.30;0.70;;;2.80;99.90;;;;;;5112182;28;20031;-63
2021/11/19 13:04:21;;;;;;;1.17;1.08;;;2.50;99.90;;;;;;5111210;28;20652;-63
2021/11/19 13:07:00;;;;;;;3.00;1.20;;;2.40;99.90;;;;;;5103088;28;20020;-63
2021/11/19 13:09:32;;;;;;;2.13;1.00;;;2.30;99.90;;;;;;5111608;28;20423;-63
2021/11/19 13:12:33;;;;;;;2.22;0.93;;;2.60;99.90;;;;;;5106693;28;20024;-64
2021/11/19 13:15:20;;;;;;;2.40;0.88;;;2.50;99.90;;;;;;5103364;28;20023;-64
2021/11/19 13:17:57;;;;;;;1.17;0.80;;;2.30;99.90;;;;;;5096521;28;20032;-64
2021/11/19 13:20:44;;;;;;;3.25;0.80;;;2.20;99.90;;;;;;5111323;28;20024;-63
2021/11/19 13:23:30;;;;;;;3.03;0.70;;;2.20;99.90;;;;;;5111624;28;20179;-63
2021/11/19 13:25:59;;;;;;;2.25;0.82;;;2.10;99.90;;;;;;5112054;28;20027;-63
2021/11/19 13:28:44;;;;;;;1.13;0.73;;;2.10;99.90;;;;;;5111608;28;20031;-63
2021/11/19 13:31:31;;;;;;;2.90;0.80;;;2.10;99.90;;;;;;5101469;28;20089;-63
2021/11/19 13:34:03;;;;;;;1.73;0.70;;;2.00;99.90;;;;;;5111396;28;20491;-63
2021/11/19 13:36:42;;;;;;;1.73;0.77;;;2.00;99.90;;;;;;5111602;28;20118;-62
2021/11/19 13:39:23;;;;;;;3.20;0.73;;;2.00;99.90;;;;;;5111507;28;20020;-63
2021/11/19 13:42:10;;;;;;;1.02;0.70;;;2.00;99.90;;;;;;5111207;28;20024;-62
2021/11/19 13:44:57;;;;;;;2.47;0.80;;;1.90;99.90;;;;;;5093615;28;20132;-63
2021/11/19 13:47:35;;;;;;;2.63;0.88;;;1.90;99.90;;;;;;5111746;28;20032;-63
2021/11/19 13:50:21;;;;;;;3.35;0.80;;;1.90;99.90;;;;;;5111921;28;20042;-63
2021/11/19 13:53:07;;;;;;;0.70;0.70;;;1.90;99.90;;;;;;5091965;28;20040;-64
2021/11/19 13:55:41;;;;;;;1.48;0.90;;;1.90;99.90;;;;;;5100871;28;20066;-62
2021/11/19 13:58:38;;;;;;;1.75;0.70;;;1.90;99.90;;;;;;5111695;28;20114;-62